Front Runner — 3FRP5 — position and weather

sailwx.info

Track history (hours):
 
Tides and Currents Weather Stations Pressure Air Temp Water Temp Dewpoint Dewpoint Depression Visibility Wind Speed Wind Dir Waves Ship Positions

Front Runner

Last reported at 2015-Jul-21 00:05 UTC. Time now 2015-Jul-29 00:40 UTC.
Position S 32°17' E 152°47'.
Warning: this ship's position is 8 days out of date.

Length 190 m; draft 11.7 m.

Type: Cargo ship. MMSI: 357941000.

Date/timePositionNaut miles runAvg speedWind from/ knotsBaromVisibWave heightAir tempDewpointWater temp
2015-Jul-21 00:05S 32°17' E 152°47'5 8.7
2015-Jul-20 23:32S 32°21' E 152°45'9 9.2
2015-Jul-20 22:33S 32°29' E 152°40'10 9.8
2015-Jul-20 21:34S 32°36' E 152°32'1010.2
2015-Jul-20 20:33S 32°44' E 152°24'10 9.8
2015-Jul-20 19:34S 32°50' E 152°15'10 9.7
2015-Jul-20 18:33S 32°55' E 152°05'10 9.5
2015-Jul-20 17:33S 32°59' E 151°55'7 7.1
2015-Jul-20 16:33S 32°55' E 151°48'2 1.4
2015-Jul-20 15:31S 32°54' E 151°46'0 0.1
2015-Jul-20 14:31S 32°54' E 151°46'0 0.0
2015-Jul-20 13:31S 32°54' E 151°46'0 0.0
2015-Jul-20 12:31S 32°54' E 151°46'0 0.0
2015-Jul-20 11:31S 32°54' E 151°46'0 0.1
2015-Jul-20 10:31S 32°54' E 151°46'0 0.0
2015-Jul-20 09:19S 32°54' E 151°46'0 0.1
2015-Jul-20 08:31S 32°54' E 151°46'0 0.0
2015-Jul-20 07:31S 32°54' E 151°46'0 0.0
2015-Jul-20 06:28S 32°54' E 151°46'0 0.0
2015-Jul-20 05:31S 32°54' E 151°46'0 0.0
2015-Jul-20 04:31S 32°54' E 151°46'0 0.0
2015-Jul-20 03:31S 32°54' E 151°46'0 0.0
2015-Jul-20 02:31S 32°54' E 151°46'0 0.0
2015-Jul-20 01:31S 32°54' E 151°46'0 0.0
2015-Jul-20 00:31S 32°54' E 151°46'0 0.1
2015-Jul-19 23:31S 32°54' E 151°46'0 0.0
2015-Jul-19 22:28S 32°54' E 151°46'0 0.0
2015-Jul-19 21:31S 32°54' E 151°46'0 0.0
2015-Jul-19 20:25S 32°54' E 151°46'0 0.1
2015-Jul-19 19:31S 32°54' E 151°46'0 0.0
2015-Jul-19 18:31S 32°54' E 151°46'0 0.0
2015-Jul-19 17:31S 32°54' E 151°46'0 0.0
2015-Jul-19 16:31S 32°54' E 151°46'0 0.1
2015-Jul-19 15:31S 32°54' E 151°46'0 0.1
2015-Jul-19 14:31S 32°54' E 151°46'0 0.0
2015-Jul-19 13:31S 32°54' E 151°46'0 0.1
2015-Jul-19 12:31S 32°54' E 151°46'0 0.1
2015-Jul-19 11:31S 32°54' E 151°46'0 0.0
2015-Jul-19 10:31S 32°54' E 151°46'0 0.1
2015-Jul-19 09:31S 32°54' E 151°46'0 0.1
2015-Jul-19 08:33S 32°54' E 151°46'1 1.3
2015-Jul-19 07:33S 32°55' E 151°47'7 7.2
2015-Jul-19 06:33S 33°01' E 151°52'0 0.2
2015-Jul-19 05:33S 33°01' E 151°52'7 6.6
2015-Jul-19 04:33S 33°07' E 151°54'10 2.4
2015-Jul-19 00:31S 33°17' E 151°57'2 2.4
2015-Jul-18 23:33S 33°19' E 151°56'4 3.7
2015-Jul-18 22:33S 33°23' E 151°57'1 0.7
2015-Jul-18 21:30S 33°23' E 151°56'2 2.0
2015-Jul-18 20:20S 33°21' E 151°57'1 1.3
2015-Jul-18 19:32S 33°20' E 151°57'2 1.6
2015-Jul-18 18:33S 33°18' E 151°57'1 1.3
2015-Jul-18 17:33S 33°17' E 151°57'1 1.3
2015-Jul-18 16:33S 33°16' E 151°57'1 0.6
2015-Jul-18 15:33S 33°15' E 151°56'1 1.4
2015-Jul-18 14:33S 33°14' E 151°55'2 2.2
2015-Jul-18 13:33S 33°12' E 151°54'2 2.2
2015-Jul-18 12:33S 33°10' E 151°54'2 2.0
2015-Jul-18 11:33S 33°08' E 151°54'1 1.4
2015-Jul-18 10:33S 33°07' E 151°54'1 1.1
2015-Jul-18 09:33S 33°06' E 151°54'1 1.2
2015-Jul-18 08:33S 33°05' E 151°54'1 1.4
2015-Jul-18 07:33S 33°03' E 151°55'1 0.7
2015-Jul-18 06:33S 33°03' E 151°55'1 1.1
2015-Jul-18 05:33S 33°03' E 151°54'3 2.9
2015-Jul-18 04:33S 33°06' E 151°55'0 0.4
2015-Jul-18 03:33S 33°06' E 151°56'1 0.8
2015-Jul-18 02:33S 33°05' E 151°55'1 1.1
2015-Jul-18 01:33S 33°06' E 151°56'4 3.5
2015-Jul-18 00:33S 33°09' E 151°54'5 4.8
2015-Jul-17 23:33S 33°13' E 151°52'11 0.9
2015-Jul-17 11:31S 33°22' E 152°00'3 3.1
2015-Jul-17 10:33S 33°19' E 152°01'2 2.0
2015-Jul-17 09:33S 33°17' E 152°02'2 2.4
2015-Jul-17 08:33S 33°15' E 152°03'1 1.4
2015-Jul-17 07:33S 33°14' E 152°02'1 1.2
2015-Jul-17 06:33S 33°13' E 152°02'1 1.3
2015-Jul-17 05:33S 33°12' E 152°00'3 3.4
2015-Jul-17 04:33S 33°13' E 151°56'12 0.4
2015-Jul-15 23:17S 33°07' E 151°43'0 0.1
2015-Jul-15 22:32S 33°07' E 151°43'0 0.0
2015-Jul-15 21:11S 33°07' E 151°43'  
Track history (hours):
 
Tides and Currents Weather Stations Pressure Air Temp Water Temp Dewpoint Dewpoint Depression Visibility Wind Speed Wind Dir Waves Ship Positions

Front Runner

Last reported at 2015-Jul-21 00:05 UTC. Time now 2015-Jul-29 00:40 UTC.
Position S 32°17' E 152°47'.
Warning: this ship's position is 8 days out of date.

Length 190 m; draft 11.7 m.

Type: Cargo ship. MMSI: 357941000.

Date/timePositionNaut miles runAvg speedWind from/ knotsBaromVisibWave heightAir tempDewpointWater temp
2015-Jul-21 00:05S 32°17' E 152°47'5 8.7
2015-Jul-20 23:32S 32°21' E 152°45'9 9.2
2015-Jul-20 22:33S 32°29' E 152°40'10 9.8
2015-Jul-20 21:34S 32°36' E 152°32'1010.2
2015-Jul-20 20:33S 32°44' E 152°24'10 9.8
2015-Jul-20 19:34S 32°50' E 152°15'10 9.7
2015-Jul-20 18:33S 32°55' E 152°05'10 9.5
2015-Jul-20 17:33S 32°59' E 151°55'7 7.1
2015-Jul-20 16:33S 32°55' E 151°48'2 1.4
2015-Jul-20 15:31S 32°54' E 151°46'0 0.1
2015-Jul-20 14:31S 32°54' E 151°46'0 0.0
2015-Jul-20 13:31S 32°54' E 151°46'0 0.0
2015-Jul-20 12:31S 32°54' E 151°46'0 0.0
2015-Jul-20 11:31S 32°54' E 151°46'0 0.1
2015-Jul-20 10:31S 32°54' E 151°46'0 0.0
2015-Jul-20 09:19S 32°54' E 151°46'0 0.1
2015-Jul-20 08:31S 32°54' E 151°46'0 0.0
2015-Jul-20 07:31S 32°54' E 151°46'0 0.0
2015-Jul-20 06:28S 32°54' E 151°46'0 0.0
2015-Jul-20 05:31S 32°54' E 151°46'0 0.0
2015-Jul-20 04:31S 32°54' E 151°46'0 0.0
2015-Jul-20 03:31S 32°54' E 151°46'0 0.0
2015-Jul-20 02:31S 32°54' E 151°46'0 0.0
2015-Jul-20 01:31S 32°54' E 151°46'0 0.0
2015-Jul-20 00:31S 32°54' E 151°46'0 0.1
2015-Jul-19 23:31S 32°54' E 151°46'0 0.0
2015-Jul-19 22:28S 32°54' E 151°46'0 0.0
2015-Jul-19 21:31S 32°54' E 151°46'0 0.0
2015-Jul-19 20:25S 32°54' E 151°46'0 0.1
2015-Jul-19 19:31S 32°54' E 151°46'0 0.0
2015-Jul-19 18:31S 32°54' E 151°46'0 0.0
2015-Jul-19 17:31S 32°54' E 151°46'0 0.0
2015-Jul-19 16:31S 32°54' E 151°46'0 0.1
2015-Jul-19 15:31S 32°54' E 151°46'0 0.1
2015-Jul-19 14:31S 32°54' E 151°46'0 0.0
2015-Jul-19 13:31S 32°54' E 151°46'0 0.1
2015-Jul-19 12:31S 32°54' E 151°46'0 0.1
2015-Jul-19 11:31S 32°54' E 151°46'0 0.0
2015-Jul-19 10:31S 32°54' E 151°46'0 0.1
2015-Jul-19 09:31S 32°54' E 151°46'0 0.1
2015-Jul-19 08:33S 32°54' E 151°46'1 1.3
2015-Jul-19 07:33S 32°55' E 151°47'7 7.2
2015-Jul-19 06:33S 33°01' E 151°52'0 0.2
2015-Jul-19 05:33S 33°01' E 151°52'7 6.6
2015-Jul-19 04:33S 33°07' E 151°54'10 2.4
2015-Jul-19 00:31S 33°17' E 151°57'2 2.4
2015-Jul-18 23:33S 33°19' E 151°56'4 3.7
2015-Jul-18 22:33S 33°23' E 151°57'1 0.7
2015-Jul-18 21:30S 33°23' E 151°56'2 2.0
2015-Jul-18 20:20S 33°21' E 151°57'1 1.3
2015-Jul-18 19:32S 33°20' E 151°57'2 1.6
2015-Jul-18 18:33S 33°18' E 151°57'1 1.3
2015-Jul-18 17:33S 33°17' E 151°57'1 1.3
2015-Jul-18 16:33S 33°16' E 151°57'1 0.6
2015-Jul-18 15:33S 33°15' E 151°56'1 1.4
2015-Jul-18 14:33S 33°14' E 151°55'2 2.2
2015-Jul-18 13:33S 33°12' E 151°54'2 2.2
2015-Jul-18 12:33S 33°10' E 151°54'2 2.0
2015-Jul-18 11:33S 33°08' E 151°54'1 1.4
2015-Jul-18 10:33S 33°07' E 151°54'1 1.1
2015-Jul-18 09:33S 33°06' E 151°54'1 1.2
2015-Jul-18 08:33S 33°05' E 151°54'1 1.4
2015-Jul-18 07:33S 33°03' E 151°55'1 0.7
2015-Jul-18 06:33S 33°03' E 151°55'1 1.1
2015-Jul-18 05:33S 33°03' E 151°54'3 2.9
2015-Jul-18 04:33S 33°06' E 151°55'0 0.4
2015-Jul-18 03:33S 33°06' E 151°56'1 0.8
2015-Jul-18 02:33S 33°05' E 151°55'1 1.1
2015-Jul-18 01:33S 33°06' E 151°56'4 3.5
2015-Jul-18 00:33S 33°09' E 151°54'5 4.8
2015-Jul-17 23:33S 33°13' E 151°52'11 0.9
2015-Jul-17 11:31S 33°22' E 152°00'3 3.1
2015-Jul-17 10:33S 33°19' E 152°01'2 2.0
2015-Jul-17 09:33S 33°17' E 152°02'2 2.4
2015-Jul-17 08:33S 33°15' E 152°03'1 1.4
2015-Jul-17 07:33S 33°14' E 152°02'1 1.2
2015-Jul-17 06:33S 33°13' E 152°02'1 1.3
2015-Jul-17 05:33S 33°12' E 152°00'3 3.4
2015-Jul-17 04:33S 33°13' E 151°56'12 0.4
2015-Jul-15 23:17S 33°07' E 151°43'0 0.1
2015-Jul-15 22:32S 33°07' E 151°43'0 0.0
2015-Jul-15 21:11S 33°07' E 151°43'  

Dump ship's entire track history